This is the latest recevied weather packets stored in our database for station/object VE6CWS-7. If no packets are shown the sender has not sent any weather packets the latest 10 day(s).
| Time | Temp. | Humidity | Pressure | Rain* | Wind** | Luminosity | Snow |
|---|---|---|---|---|---|---|---|
| 1777691732 | 16.11° C | 44% | 1012.8 hPa | 0 mm | - | - | - |
| 1777689940 | 17.22° C | 39% | 1012.2 hPa | 0 mm | - | - | - |
| 1777689043 | 18.89° C | 33% | 1012 hPa | 0 mm | - | - | - |
| 1777688138 | 19.44° C | 32% | 1011.6 hPa | 0 mm | - | - | - |
| 1777687299 | 20.56° C | 25% | 1010.9 hPa | 0 mm | - | - | - |
| 1777686336 | 20.56° C | 25% | 1011 hPa | 0 mm | - | - | - |
| 1777685443 | 21.67° C | 24% | 1011.3 hPa | 0 mm | - | - | - |
| 1777684535 | 21.67° C | 26% | 1011.2 hPa | 0 mm | - | - | - |
| 1777683694 | 22.78° C | 26% | 1011.2 hPa | 0 mm | - | - | - |
| 1777682766 | 22.78° C | 24% | 1011.3 hPa | 0 mm | - | - | - |
| 1777681848 | 23.33° C | 23% | 1011.4 hPa | 0 mm | - | - | - |
| 1777680947 | 23.89° C | 19% | 1011.5 hPa | 0 mm | - | - | - |
| 1777680107 | 22.78° C | 19% | 1011.5 hPa | 0 mm | - | - | - |
| 1777679147 | 22.78° C | 20% | 1011.5 hPa | 0 mm | - | - | - |
| 1777678245 | 22.78° C | 21% | 1011.8 hPa | 0 mm | - | - | - |
| 1777677344 | 22.78° C | 19% | 1011.8 hPa | 0 mm | - | - | - |
| 1777676502 | 23.33° C | 19% | 1011.8 hPa | 0 mm | - | - | - |
| 1777675544 | 23.89° C | 20% | 1011.9 hPa | 0 mm | - | - | - |
| 1777674640 | 23.33° C | 20% | 1011.9 hPa | 0 mm | - | - | - |
| 1777673738 | 22.78° C | 21% | 1012.1 hPa | 0 mm | - | - | - |
| 1777672895 | 22.22° C | 20% | 1012.2 hPa | 0 mm | - | - | - |
| 1777671951 | 22.22° C | 20% | 1012.4 hPa | 0 mm | - | - | - |
| 1777671067 | 22.78° C | 20% | 1012.5 hPa | 0 mm | - | - | - |
| 1777670147 | 22.78° C | 22% | 1012.6 hPa | 0 mm | - | - | - |
| 1777669305 | 22.22° C | 20% | 1012.7 hPa | 0 mm | - | - | - |
* Rain latest hour (hover to see other rain measurements)
** Current wind speed in m/s (hover to see current wind gust speed)